createdAt,value
2018-09-13T00:00:02.735Z,988.88
2018-09-13T00:01:02.932Z,988.90
2018-09-13T00:02:03.106Z,988.86
2018-09-13T00:03:03.296Z,988.86
2018-09-13T00:04:03.484Z,988.86
2018-09-13T00:05:03.697Z,988.80
2018-09-13T00:06:03.895Z,988.81
2018-09-13T00:07:04.105Z,988.80
2018-09-13T00:08:04.263Z,988.74
2018-09-13T00:09:04.450Z,988.74
2018-09-13T00:10:04.668Z,988.68
2018-09-13T00:11:04.846Z,988.70
2018-09-13T00:12:05.030Z,988.72
2018-09-13T00:13:05.169Z,988.73
2018-09-13T00:14:05.350Z,988.68
2018-09-13T00:15:05.548Z,988.67
2018-09-13T00:16:05.709Z,988.65
2018-09-13T00:17:05.904Z,988.60
2018-09-13T00:18:06.127Z,988.56
2018-09-13T00:19:06.277Z,988.56
2018-09-13T00:20:06.491Z,988.51
2018-09-13T00:21:06.739Z,988.47
2018-09-13T00:22:06.844Z,988.52
2018-09-13T00:23:07.022Z,988.47
2018-09-13T00:24:07.237Z,988.51
2018-09-13T00:25:07.375Z,988.49
2018-09-13T00:26:07.573Z,988.45
2018-09-13T00:27:07.731Z,988.47
2018-09-13T00:29:50.694Z,988.47
2018-09-13T00:30:50.827Z,988.50
2018-09-13T00:31:51.047Z,988.48
2018-09-13T00:32:51.279Z,988.48
2018-09-13T00:33:51.414Z,988.53
2018-09-13T00:34:51.611Z,988.52
2018-09-13T00:35:51.767Z,988.49
2018-09-13T00:36:51.939Z,988.46
2018-09-13T00:37:52.124Z,988.44
2018-09-13T00:38:52.337Z,988.45
2018-09-13T00:39:52.530Z,988.43
2018-09-13T00:40:52.730Z,988.49
2018-09-13T00:41:52.904Z,988.44
2018-09-13T00:42:53.081Z,988.50
2018-09-13T00:43:53.256Z,988.46
2018-09-13T00:44:53.439Z,988.42
2018-09-13T00:45:53.672Z,988.39
2018-09-13T00:46:53.814Z,988.39
2018-09-13T00:47:54.001Z,988.42
2018-09-13T00:48:54.192Z,988.41
2018-09-13T00:49:54.379Z,988.44
2018-09-13T00:50:54.578Z,988.42
2018-09-13T00:51:54.758Z,988.47
2018-09-13T00:52:54.940Z,988.53
2018-09-13T00:53:55.085Z,988.48
2018-09-13T00:54:55.276Z,988.50
2018-09-13T00:55:55.511Z,988.47
2018-09-13T00:56:55.581Z,988.52
2018-09-13T00:57:55.764Z,988.48
2018-09-13T00:58:55.976Z,988.47
2018-09-13T00:59:56.129Z,988.49
2018-09-13T01:00:56.327Z,988.47
2018-09-13T01:01:56.477Z,988.49
2018-09-13T01:02:56.690Z,988.48
2018-09-13T01:03:56.849Z,988.47
2018-09-13T01:04:57.108Z,988.52
2018-09-13T01:05:57.237Z,988.50
2018-09-13T01:06:57.430Z,988.51
2018-09-13T01:07:57.676Z,988.51
2018-09-13T01:08:57.892Z,988.48
2018-09-13T01:09:58.033Z,988.47
2018-09-13T01:10:58.296Z,988.45
2018-09-13T01:11:58.409Z,988.47
2018-09-13T01:12:58.593Z,988.52
2018-09-13T01:13:58.787Z,988.50
2018-09-13T01:14:58.949Z,988.47
2018-09-13T01:15:59.140Z,988.44
2018-09-13T01:16:59.323Z,988.43
2018-09-13T01:17:59.527Z,988.45
2018-09-13T01:18:59.735Z,988.45
2018-09-13T01:19:59.907Z,988.44
2018-09-13T01:21:00.084Z,988.46
2018-09-13T01:22:00.269Z,988.43
2018-09-13T01:23:00.472Z,988.43
2018-09-13T01:24:00.619Z,988.39
2018-09-13T01:25:00.818Z,988.39
2018-09-13T01:26:01.017Z,988.39
2018-09-13T01:27:01.181Z,988.38
2018-09-13T01:28:01.378Z,988.38
2018-09-13T01:29:01.532Z,988.35
2018-09-13T01:30:01.719Z,988.33
2018-09-13T01:31:01.905Z,988.32
2018-09-13T01:32:02.117Z,988.33
2018-09-13T01:33:02.271Z,988.30
2018-09-13T01:34:02.454Z,988.28
2018-09-13T01:35:02.672Z,988.26
2018-09-13T01:36:02.810Z,988.23
2018-09-13T01:37:02.999Z,988.20
2018-09-13T01:38:03.203Z,988.16
2018-09-13T01:39:03.346Z,988.18
2018-09-13T01:40:03.539Z,988.19
2018-09-13T01:41:03.742Z,988.20
2018-09-13T01:42:03.929Z,988.20
2018-09-13T01:43:04.111Z,988.24
2018-09-13T01:44:04.281Z,988.19
2018-09-13T01:45:04.493Z,988.22
2018-09-13T01:46:04.664Z,988.23
2018-09-13T01:47:04.868Z,988.22
2018-09-13T01:48:04.950Z,988.23
2018-09-13T01:49:05.153Z,988.24
2018-09-13T01:50:05.313Z,988.23
2018-09-13T01:51:05.489Z,988.21
2018-09-13T01:52:05.715Z,988.24
2018-09-13T01:53:05.935Z,988.23
2018-09-13T01:54:06.113Z,988.21
2018-09-13T01:55:06.349Z,988.23
2018-09-13T01:56:06.575Z,988.21
2018-09-13T01:57:06.724Z,988.19
2018-09-13T01:58:06.880Z,988.18
2018-09-13T01:59:07.081Z,988.17
2018-09-13T02:00:07.246Z,988.19
2018-09-13T02:02:07.659Z,988.16
2018-09-13T02:03:07.847Z,988.17
2018-09-13T02:05:51.655Z,988.16
2018-09-13T02:06:50.985Z,988.13
2018-09-13T02:07:51.168Z,988.12
2018-09-13T02:08:51.279Z,988.11
2018-09-13T02:09:51.464Z,988.10
2018-09-13T02:10:51.674Z,988.12
2018-09-13T02:11:51.833Z,988.11
2018-09-13T02:12:51.992Z,988.08
2018-09-13T02:13:52.273Z,988.13
2018-09-13T02:14:52.384Z,988.13
2018-09-13T02:15:52.630Z,988.13
2018-09-13T02:16:52.754Z,988.17
2018-09-13T02:17:52.981Z,988.14
2018-09-13T02:18:53.122Z,988.14
2018-09-13T02:19:53.306Z,988.15
2018-09-13T02:20:53.556Z,988.15
2018-09-13T02:21:53.743Z,988.14
2018-09-13T02:22:53.937Z,988.11
2018-09-13T02:23:54.126Z,988.13
2018-09-13T02:24:54.338Z,988.08
2018-09-13T02:25:54.484Z,988.05
2018-09-13T02:26:55.147Z,988.04
2018-09-13T02:27:54.801Z,988.07
2018-09-13T02:28:54.969Z,988.05
2018-09-13T02:29:55.147Z,988.12
2018-09-13T02:30:55.331Z,988.07
2018-09-13T02:31:55.559Z,988.04
2018-09-13T02:32:55.688Z,988.03
2018-09-13T02:33:55.864Z,987.99
2018-09-13T02:34:56.035Z,988.02
2018-09-13T02:35:56.222Z,988.01
2018-09-13T02:36:56.451Z,988.02
2018-09-13T02:37:56.592Z,988.00
2018-09-13T02:38:56.765Z,988.03
2018-09-13T02:39:56.963Z,988.01
2018-09-13T02:40:57.147Z,988.03
2018-09-13T02:41:57.321Z,988.01
2018-09-13T02:42:57.519Z,987.97
2018-09-13T02:43:57.658Z,988.02
2018-09-13T02:44:57.842Z,987.99
2018-09-13T02:45:58.039Z,987.98
2018-09-13T02:46:58.237Z,987.99
2018-09-13T02:47:58.389Z,987.95
2018-09-13T02:48:58.580Z,987.98
2018-09-13T02:49:58.823Z,987.95
2018-09-13T02:50:59.010Z,987.95
2018-09-13T02:51:59.172Z,987.94
2018-09-13T02:52:59.319Z,987.98
2018-09-13T02:53:59.498Z,987.95
2018-09-13T02:54:59.690Z,987.99
2018-09-13T02:55:59.888Z,987.96
2018-09-13T02:57:00.049Z,987.96
2018-09-13T02:58:00.273Z,987.94
2018-09-13T02:59:00.383Z,987.91
2018-09-13T03:00:00.568Z,987.87
2018-09-13T03:01:00.748Z,987.89
2018-09-13T03:02:00.923Z,987.88
2018-09-13T03:03:01.107Z,987.87
2018-09-13T03:04:01.309Z,987.85
2018-09-13T03:05:01.461Z,987.82
2018-09-13T03:06:01.681Z,987.81
2018-09-13T03:07:01.845Z,987.81
2018-09-13T03:08:02.037Z,987.81
2018-09-13T03:09:02.243Z,987.81
2018-09-13T03:10:02.442Z,987.81
2018-09-13T03:11:02.598Z,987.81
2018-09-13T03:12:02.807Z,987.83
2018-09-13T03:13:02.963Z,987.82
2018-09-13T03:14:03.142Z,987.81
2018-09-13T03:15:03.320Z,987.83
2018-09-13T03:16:03.507Z,987.84
2018-09-13T03:17:03.665Z,987.83
2018-09-13T03:18:03.885Z,987.89
2018-09-13T03:19:04.015Z,987.89
2018-09-13T03:20:04.208Z,987.92
2018-09-13T03:21:04.378Z,987.91
2018-09-13T03:22:04.622Z,987.89
2018-09-13T03:23:04.789Z,987.87
2018-09-13T03:24:04.982Z,987.88
2018-09-13T03:25:05.174Z,987.87
2018-09-13T03:26:05.367Z,987.90
2018-09-13T03:27:05.576Z,987.87
2018-09-13T03:28:05.775Z,987.83
2018-09-13T03:29:05.963Z,987.81
2018-09-13T03:30:06.187Z,987.77
2018-09-13T03:31:06.307Z,987.75
2018-09-13T03:32:06.497Z,987.75
2018-09-13T03:33:06.652Z,987.71
2018-09-13T03:34:06.843Z,987.71
2018-09-13T03:35:07.028Z,987.67
2018-09-13T03:36:07.210Z,987.69
2018-09-13T03:37:07.389Z,987.67
2018-09-13T03:38:07.634Z,987.64
2018-09-13T03:39:07.738Z,987.62
2018-09-13T03:40:07.947Z,987.58
2018-09-13T03:41:08.153Z,987.59
2018-09-13T03:42:08.316Z,987.60
2018-09-13T03:43:08.471Z,987.60
2018-09-13T03:44:08.687Z,987.59
2018-09-13T03:45:08.841Z,987.59
2018-09-13T03:46:09.062Z,987.58
2018-09-13T03:47:09.206Z,987.59
2018-09-13T03:48:09.409Z,987.58
2018-09-13T03:49:09.656Z,987.56
2018-09-13T03:50:09.791Z,987.59
2018-09-13T03:51:09.972Z,987.55
2018-09-13T03:52:10.157Z,987.56
2018-09-13T03:53:10.354Z,987.55
2018-09-13T03:54:10.527Z,987.55
2018-09-13T03:55:10.696Z,987.54
2018-09-13T03:56:10.911Z,987.57
2018-09-13T03:57:11.085Z,987.53
2018-09-13T03:58:11.226Z,987.53
2018-09-13T03:59:11.405Z,987.50
2018-09-13T04:00:11.569Z,987.51
2018-09-13T04:01:11.766Z,987.54
2018-09-13T04:02:11.989Z,987.52
2018-09-13T04:03:12.193Z,987.53
2018-09-13T04:04:12.343Z,987.50
2018-09-13T04:05:12.526Z,987.49
2018-09-13T04:06:12.712Z,987.50
2018-09-13T04:07:12.898Z,987.52
2018-09-13T04:08:13.088Z,987.47
2018-09-13T04:09:13.317Z,987.49
2018-09-13T04:10:13.442Z,987.51
2018-09-13T04:11:13.606Z,987.51
2018-09-13T04:12:13.785Z,987.50
2018-09-13T04:13:13.970Z,987.54
2018-09-13T04:14:14.216Z,987.59
2018-09-13T04:15:14.403Z,987.62
2018-09-13T04:16:14.584Z,987.64
2018-09-13T04:17:14.755Z,987.65
2018-09-13T04:18:14.956Z,987.65
2018-09-13T04:19:15.096Z,987.64
2018-09-13T04:20:15.288Z,987.69
2018-09-13T04:21:15.505Z,987.66
2018-09-13T04:22:15.637Z,987.65
2018-09-13T04:23:15.827Z,987.59
2018-09-13T04:24:16.028Z,987.60
2018-09-13T04:25:16.174Z,987.61
2018-09-13T04:26:16.343Z,987.59
2018-09-13T04:27:16.522Z,987.57
2018-09-13T04:28:16.698Z,987.57
2018-09-13T04:29:16.886Z,987.54
2018-09-13T04:30:17.081Z,987.59
2018-09-13T04:31:17.273Z,987.55
2018-09-13T04:32:17.467Z,987.55
2018-09-13T04:33:17.655Z,987.56
2018-09-13T04:34:17.949Z,987.55
2018-09-13T04:35:18.061Z,987.56
2018-09-13T04:36:18.259Z,987.52
2018-09-13T04:37:18.493Z,987.51
2018-09-13T04:38:18.641Z,987.51
2018-09-13T04:39:18.832Z,987.51
2018-09-13T04:40:18.982Z,987.47
2018-09-13T04:41:19.192Z,987.52
2018-09-13T04:42:19.377Z,987.52
2018-09-13T04:43:19.521Z,987.49
2018-09-13T04:44:19.706Z,987.44
2018-09-13T04:45:19.899Z,987.47
2018-09-13T04:46:20.061Z,987.42
2018-09-13T04:47:20.305Z,987.43
2018-09-13T04:48:20.464Z,987.39
2018-09-13T04:49:20.817Z,987.42
2018-09-13T04:50:20.908Z,987.43
2018-09-13T04:51:21.022Z,987.43
2018-09-13T04:52:21.237Z,987.39
2018-09-13T04:53:21.409Z,987.42
2018-09-13T04:54:21.580Z,987.43
2018-09-13T04:55:21.766Z,987.40
2018-09-13T04:56:21.936Z,987.39
2018-09-13T04:57:22.151Z,987.45
2018-09-13T04:58:23.189Z,987.40
2018-09-13T04:59:22.577Z,987.40
2018-09-13T05:00:22.844Z,987.44
2018-09-13T05:01:22.983Z,987.44
2018-09-13T05:02:23.084Z,987.46
2018-09-13T05:03:23.342Z,987.46
2018-09-13T05:04:23.438Z,987.49
2018-09-13T05:05:23.624Z,987.54
2018-09-13T05:06:23.803Z,987.45
2018-09-13T05:07:23.987Z,987.45
2018-09-13T05:08:24.140Z,987.41
2018-09-13T05:09:24.367Z,987.36
2018-09-13T05:10:24.562Z,987.33
2018-09-13T05:11:24.689Z,987.28
2018-09-13T05:12:24.880Z,987.24
2018-09-13T05:13:25.022Z,987.27
2018-09-13T05:14:25.245Z,987.26
2018-09-13T05:15:25.414Z,987.27
2018-09-13T05:16:25.558Z,987.26
2018-09-13T05:17:25.745Z,987.33
2018-09-13T05:18:25.984Z,987.32
2018-09-13T05:19:26.086Z,987.33
2018-09-13T05:20:26.334Z,987.31
2018-09-13T05:21:26.512Z,987.30
2018-09-13T05:22:26.645Z,987.29
2018-09-13T05:23:26.886Z,987.34
2018-09-13T05:24:27.083Z,987.27
2018-09-13T05:25:27.211Z,987.24
2018-09-13T05:26:27.386Z,987.19
2018-09-13T05:27:27.566Z,987.21
2018-09-13T05:28:27.797Z,987.21
2018-09-13T05:29:28.685Z,987.25
2018-09-13T05:30:28.248Z,987.24
2018-09-13T05:31:28.337Z,987.27
2018-09-13T05:32:28.524Z,987.30
2018-09-13T05:33:28.674Z,987.34
2018-09-13T05:34:28.858Z,987.32
2018-09-13T05:35:29.043Z,987.36
2018-09-13T05:36:29.253Z,987.39
2018-09-13T05:37:29.445Z,987.41
2018-09-13T05:38:29.624Z,987.38
2018-09-13T05:39:29.847Z,987.42
2018-09-13T05:40:30.016Z,987.43
2018-09-13T05:41:30.188Z,987.46
2018-09-13T05:42:30.425Z,987.45
2018-09-13T05:43:30.568Z,987.48
2018-09-13T05:44:30.759Z,987.44
2018-09-13T05:45:30.925Z,987.44
2018-09-13T05:46:31.138Z,987.39
2018-09-13T05:47:31.292Z,987.38
2018-09-13T05:48:31.462Z,987.40
2018-09-13T05:49:31.611Z,987.37
2018-09-13T05:50:31.823Z,987.36
2018-09-13T05:51:32.005Z,987.38
2018-09-13T05:52:32.147Z,987.44
2018-09-13T05:53:32.383Z,987.38
2018-09-13T05:54:32.584Z,987.44
2018-09-13T05:55:32.829Z,987.45
2018-09-13T05:56:32.932Z,987.46
2018-09-13T05:57:33.119Z,987.42
2018-09-13T05:58:33.333Z,987.41
2018-09-13T05:59:33.500Z,987.41
2018-09-13T06:00:33.693Z,987.41
2018-09-13T06:01:33.977Z,987.40
2018-09-13T06:02:34.073Z,987.38
2018-09-13T06:03:34.224Z,987.38
2018-09-13T06:04:34.409Z,987.34
2018-09-13T06:05:34.581Z,987.34
2018-09-13T06:06:34.803Z,987.33
2018-09-13T06:07:34.980Z,987.32
2018-09-13T06:08:35.118Z,987.35
2018-09-13T06:09:35.310Z,987.33
2018-09-13T06:10:35.484Z,987.27
2018-09-13T06:11:35.681Z,987.32
2018-09-13T06:12:35.828Z,987.30
2018-09-13T06:13:36.030Z,987.33
2018-09-13T06:14:36.199Z,987.37
2018-09-13T06:15:36.358Z,987.36
2018-09-13T06:16:36.571Z,987.35
2018-09-13T06:17:36.718Z,987.36
2018-09-13T06:18:36.937Z,987.36
2018-09-13T06:21:20.270Z,987.40
2018-09-13T06:22:19.865Z,987.46
2018-09-13T06:23:20.106Z,987.49
2018-09-13T06:24:20.300Z,987.49
2018-09-13T06:25:20.525Z,987.50
2018-09-13T06:26:20.704Z,987.50
2018-09-13T06:27:20.975Z,987.51
2018-09-13T06:28:21.087Z,987.53
2018-09-13T06:29:21.233Z,987.53
2018-09-13T06:30:21.460Z,987.54
2018-09-13T06:31:21.572Z,987.53
2018-09-13T06:32:21.778Z,987.55
2018-09-13T06:33:21.962Z,987.55
2018-09-13T06:34:22.146Z,987.58
2018-09-13T06:35:22.322Z,987.58
2018-09-13T06:36:22.554Z,987.58
2018-09-13T06:37:22.678Z,987.57
2018-09-13T06:38:22.903Z,987.51
2018-09-13T06:39:23.047Z,987.50
2018-09-13T06:40:23.248Z,987.51
2018-09-13T06:41:23.400Z,987.49
2018-09-13T06:42:23.626Z,987.50
2018-09-13T06:43:23.792Z,987.48
2018-09-13T06:44:24.030Z,987.49
2018-09-13T06:45:24.141Z,987.51
2018-09-13T06:46:24.339Z,987.52
2018-09-13T06:47:24.612Z,987.53
2018-09-13T06:48:24.660Z,987.49
2018-09-13T06:49:24.828Z,987.55
2018-09-13T06:50:25.011Z,987.56
2018-09-13T06:51:25.251Z,987.51
2018-09-13T06:52:25.412Z,987.55
2018-09-13T06:53:25.620Z,987.51
2018-09-13T06:54:25.803Z,987.53
2018-09-13T06:55:26.026Z,987.50
2018-09-13T06:56:26.175Z,987.53
2018-09-13T06:57:26.358Z,987.51
2018-09-13T06:58:26.544Z,987.53
2018-09-13T06:59:26.743Z,987.51
2018-09-13T07:00:26.903Z,987.51
2018-09-13T07:01:27.093Z,987.54
2018-09-13T07:02:27.272Z,987.57
2018-09-13T07:03:27.443Z,987.54
2018-09-13T07:04:27.625Z,987.60
2018-09-13T07:05:27.881Z,987.60
2018-09-13T07:06:28.031Z,987.63
2018-09-13T07:07:28.231Z,987.60
2018-09-13T07:08:28.391Z,987.62
2018-09-13T07:09:28.569Z,987.64
2018-09-13T07:10:28.761Z,987.65
2018-09-13T07:11:28.925Z,987.62
2018-09-13T07:12:29.098Z,987.65
2018-09-13T07:13:29.277Z,987.64
2018-09-13T07:14:29.467Z,987.64
2018-09-13T07:15:29.652Z,987.65
2018-09-13T07:16:29.843Z,987.66
2018-09-13T07:17:30.027Z,987.66
2018-09-13T07:18:30.221Z,987.64
2018-09-13T07:19:30.411Z,987.66
2018-09-13T07:20:30.570Z,987.68
2018-09-13T07:21:30.741Z,987.72
2018-09-13T07:22:31.624Z,987.75
2018-09-13T07:23:31.146Z,987.76
2018-09-13T07:24:31.345Z,987.84
2018-09-13T07:25:31.506Z,987.84
2018-09-13T07:26:31.766Z,987.79
2018-09-13T07:27:31.867Z,987.80
2018-09-13T07:28:32.057Z,987.78
2018-09-13T07:29:32.247Z,987.78
2018-09-13T07:30:32.429Z,987.79
2018-09-13T07:31:32.625Z,987.82
2018-09-13T07:32:32.804Z,987.85
2018-09-13T07:33:32.992Z,987.84
2018-09-13T07:34:33.190Z,987.78
2018-09-13T07:35:33.548Z,987.80
2018-09-13T07:36:33.602Z,987.76
2018-09-13T07:37:33.762Z,987.77
2018-09-13T07:38:33.949Z,987.78
2018-09-13T07:39:34.162Z,987.77
2018-09-13T07:40:34.298Z,987.77
2018-09-13T07:41:34.476Z,987.74
2018-09-13T07:42:34.805Z,987.74
2018-09-13T07:43:34.975Z,987.80
2018-09-13T07:44:35.125Z,987.79
2018-09-13T07:45:35.265Z,987.82
2018-09-13T07:46:35.479Z,987.86
2018-09-13T07:47:35.633Z,987.83
2018-09-13T07:48:35.837Z,987.82
2018-09-13T07:49:36.135Z,987.84
2018-09-13T07:50:36.221Z,987.88
2018-09-13T07:51:36.476Z,987.87
2018-09-13T07:52:36.638Z,987.88
2018-09-13T07:53:36.858Z,987.86
2018-09-13T07:54:36.999Z,987.87
2018-09-13T07:55:37.252Z,987.89
2018-09-13T07:56:37.391Z,987.87
2018-09-13T07:57:37.569Z,987.91
2018-09-13T07:58:37.818Z,987.87
2018-09-13T07:59:37.928Z,987.88
2018-09-13T08:00:38.127Z,987.93
2018-09-13T08:01:38.307Z,987.94
2018-09-13T08:02:38.508Z,987.97
2018-09-13T08:03:38.696Z,987.97
2018-09-13T08:04:38.869Z,987.98
2018-09-13T08:05:39.097Z,987.99
2018-09-13T08:06:39.283Z,987.95
2018-09-13T08:07:39.441Z,987.99
2018-09-13T08:08:39.657Z,987.91
2018-09-13T08:09:39.805Z,987.96
2018-09-13T08:10:39.988Z,987.95
2018-09-13T08:11:40.206Z,987.94
2018-09-13T08:12:41.378Z,987.97
2018-09-13T08:13:40.528Z,987.96
2018-09-13T08:14:40.711Z,987.96
2018-09-13T08:15:40.993Z,987.99
2018-09-13T08:16:41.119Z,987.95
2018-09-13T08:17:41.358Z,987.98
2018-09-13T08:18:41.645Z,987.98
2018-09-13T08:19:41.669Z,988.01
2018-09-13T08:20:41.889Z,987.98
2018-09-13T08:21:42.108Z,988.04
2018-09-13T08:22:42.239Z,988.00
2018-09-13T08:23:42.470Z,987.99
2018-09-13T08:24:42.684Z,987.99
2018-09-13T08:25:42.804Z,988.01
2018-09-13T08:26:42.972Z,988.00
2018-09-13T08:27:43.220Z,988.05
2018-09-13T08:28:43.344Z,988.09
2018-09-13T08:29:43.547Z,988.12
2018-09-13T08:30:43.740Z,988.16
2018-09-13T08:31:43.979Z,988.21
2018-09-13T08:32:44.020Z,988.19
2018-09-13T08:33:44.202Z,988.18
2018-09-13T08:34:44.531Z,988.22
2018-09-13T08:35:44.569Z,988.25
2018-09-13T08:36:44.872Z,988.32
2018-09-13T08:37:45.051Z,988.33
2018-09-13T08:38:45.174Z,988.33
2018-09-13T08:39:45.387Z,988.31
2018-09-13T08:40:45.695Z,988.31
2018-09-13T08:41:46.653Z,988.29
2018-09-13T08:42:45.868Z,988.29
2018-09-13T08:43:46.144Z,988.31
2018-09-13T08:44:46.224Z,988.30
2018-09-13T08:45:46.394Z,988.32
2018-09-13T08:46:46.607Z,988.34
2018-09-13T08:47:46.789Z,988.36
2018-09-13T08:48:46.972Z,988.37
2018-09-13T08:49:47.159Z,988.38
2018-09-13T08:50:47.350Z,988.40
2018-09-13T08:51:47.641Z,988.37
2018-09-13T08:52:47.798Z,988.37
2018-09-13T08:53:47.970Z,988.34
2018-09-13T08:54:48.160Z,988.30
2018-09-13T08:55:48.343Z,988.31
2018-09-13T08:56:48.554Z,988.28
2018-09-13T08:57:48.709Z,988.28
2018-09-13T08:58:48.885Z,988.28
2018-09-13T08:59:49.084Z,988.30
2018-09-13T09:00:49.303Z,988.26
2018-09-13T09:01:49.430Z,988.31
2018-09-13T09:02:49.618Z,988.23
2018-09-13T09:03:49.804Z,988.27
2018-09-13T09:04:49.968Z,988.21
2018-09-13T09:05:50.150Z,988.25
2018-09-13T09:06:50.339Z,988.23
2018-09-13T09:07:50.530Z,988.30
2018-09-13T09:08:50.747Z,988.28
2018-09-13T09:09:50.889Z,988.30
2018-09-13T09:10:51.098Z,988.33
2018-09-13T09:11:51.355Z,988.31
2018-09-13T09:12:51.507Z,988.31
2018-09-13T09:13:51.648Z,988.33
2018-09-13T09:14:51.840Z,988.28
2018-09-13T09:15:52.004Z,988.29
2018-09-13T09:16:52.202Z,988.28
2018-09-13T09:17:52.375Z,988.26
2018-09-13T09:18:52.549Z,988.25
2018-09-13T09:19:52.730Z,988.30
2018-09-13T09:20:52.960Z,988.28
2018-09-13T09:21:53.103Z,988.27
2018-09-13T09:22:53.274Z,988.31
2018-09-13T09:23:53.447Z,988.30
2018-09-13T09:24:53.650Z,988.34
2018-09-13T09:25:53.869Z,988.35
2018-09-13T09:26:54.058Z,988.34
2018-09-13T09:27:54.240Z,988.31
2018-09-13T09:28:54.522Z,988.29
2018-09-13T09:29:54.652Z,988.25
2018-09-13T09:30:54.843Z,988.33
2018-09-13T09:31:55.026Z,988.32
2018-09-13T09:32:55.156Z,988.37
2018-09-13T09:33:55.333Z,988.37
2018-09-13T09:34:55.643Z,988.31
2018-09-13T09:35:55.700Z,988.34
2018-09-13T09:36:55.862Z,988.32
2018-09-13T09:37:56.056Z,988.28
2018-09-13T09:38:56.235Z,988.32
2018-09-13T09:39:56.584Z,988.31
2018-09-13T09:40:56.658Z,988.29
2018-09-13T09:41:56.928Z,988.28
2018-09-13T09:42:57.048Z,988.26
2018-09-13T09:43:57.313Z,988.31
2018-09-13T09:44:57.416Z,988.32
2018-09-13T09:45:57.595Z,988.28
2018-09-13T09:46:57.819Z,988.24
2018-09-13T09:47:59.269Z,988.29
2018-09-13T09:48:58.291Z,988.21
2018-09-13T09:49:58.454Z,988.21
2018-09-13T09:50:58.564Z,988.20
2018-09-13T09:51:59.002Z,988.23
2018-09-13T09:52:59.470Z,988.20
2018-09-13T09:53:59.163Z,988.23
2018-09-13T09:54:59.794Z,988.18
2018-09-13T09:55:59.564Z,988.24
2018-09-13T09:56:59.776Z,988.18
2018-09-13T09:58:01.105Z,988.19
2018-09-13T09:59:00.156Z,988.19
2018-09-13T10:00:00.962Z,988.19
2018-09-13T10:01:00.538Z,988.16
2018-09-13T10:02:01.319Z,988.16
2018-09-13T10:03:01.015Z,988.17
2018-09-13T10:04:01.406Z,988.18
2018-09-13T10:05:02.160Z,988.15
2018-09-13T10:06:01.562Z,988.16
2018-09-13T10:07:01.730Z,988.15
2018-09-13T10:08:01.913Z,988.21
2018-09-13T10:09:02.741Z,988.23
2018-09-13T10:10:02.304Z,988.24
2018-09-13T10:11:02.496Z,988.24
2018-09-13T10:12:02.713Z,988.23
2018-09-13T10:13:02.849Z,988.18
2018-09-13T10:14:03.068Z,988.21
2018-09-13T10:15:03.283Z,988.21
2018-09-13T10:16:03.428Z,988.19
2018-09-13T10:17:03.594Z,988.18
2018-09-13T10:18:03.807Z,988.16
2018-09-13T10:19:03.995Z,988.18
2018-09-13T10:20:04.141Z,988.18
2018-09-13T10:21:04.340Z,988.21
2018-09-13T10:22:04.507Z,988.20
2018-09-13T10:23:04.730Z,988.19
2018-09-13T10:24:04.881Z,988.20
2018-09-13T10:25:05.074Z,988.21
2018-09-13T10:26:05.256Z,988.24
2018-09-13T10:27:05.494Z,988.20
2018-09-13T10:28:05.625Z,988.23
2018-09-13T10:29:05.850Z,988.18
2018-09-13T10:30:06.009Z,988.19
2018-09-13T10:31:06.227Z,988.20
2018-09-13T10:32:06.406Z,988.20
2018-09-13T10:33:06.606Z,988.18
2018-09-13T10:34:06.775Z,988.22
2018-09-13T10:35:06.961Z,988.19
2018-09-13T10:36:07.149Z,988.22
2018-09-13T10:37:07.338Z,988.20
2018-09-13T10:38:07.523Z,988.21
2018-09-13T10:39:07.718Z,988.19
2018-09-13T10:40:07.904Z,988.18
2018-09-13T10:41:08.093Z,988.22
2018-09-13T10:42:08.357Z,988.24
2018-09-13T10:43:08.481Z,988.29
2018-09-13T10:44:08.671Z,988.26
2018-09-13T10:45:08.825Z,988.28
2018-09-13T10:46:09.011Z,988.26
2018-09-13T10:47:09.197Z,988.23
2018-09-13T10:48:09.415Z,988.20
2018-09-13T10:49:09.567Z,988.19
2018-09-13T10:50:09.775Z,988.18
2018-09-13T10:51:09.955Z,988.20
2018-09-13T10:52:10.172Z,988.23
2018-09-13T10:53:10.311Z,988.25
2018-09-13T10:54:10.528Z,988.24
2018-09-13T10:55:10.669Z,988.19
2018-09-13T10:56:10.862Z,988.20
2018-09-13T10:57:11.087Z,988.20
2018-09-13T10:58:11.238Z,988.18
2018-09-13T10:59:11.483Z,988.17
2018-09-13T11:00:11.616Z,988.17
2018-09-13T11:01:11.791Z,988.17
2018-09-13T11:02:12.029Z,988.17
2018-09-13T11:03:12.156Z,988.13
2018-09-13T11:04:12.465Z,988.15
2018-09-13T11:05:12.513Z,988.14
2018-09-13T11:06:12.771Z,988.13
2018-09-13T11:07:12.875Z,988.11
2018-09-13T11:08:13.057Z,988.07
2018-09-13T11:09:13.248Z,988.09
2018-09-13T11:10:13.409Z,988.10
2018-09-13T11:11:13.649Z,988.06
2018-09-13T11:12:13.816Z,988.06
2018-09-13T11:13:14.023Z,988.07
2018-09-13T11:14:14.151Z,988.06
2018-09-13T11:15:14.336Z,988.08
2018-09-13T11:16:14.504Z,988.07
2018-09-13T11:17:14.700Z,988.05
2018-09-13T11:18:14.887Z,988.07
2018-09-13T11:19:15.065Z,988.05
2018-09-13T11:20:15.238Z,988.05
2018-09-13T11:21:15.472Z,988.05
2018-09-13T11:22:15.613Z,988.03
2018-09-13T11:23:15.789Z,988.03
2018-09-13T11:24:15.970Z,988.05
2018-09-13T11:25:16.177Z,988.05
2018-09-13T11:26:16.381Z,988.05
2018-09-13T11:27:16.585Z,988.03
2018-09-13T11:28:16.767Z,988.02
2018-09-13T11:29:16.919Z,988.03
2018-09-13T11:30:17.100Z,987.99
2018-09-13T11:31:18.201Z,988.00
2018-09-13T11:32:17.431Z,987.99
2018-09-13T11:33:17.657Z,988.01
2018-09-13T11:34:17.767Z,988.00
2018-09-13T11:35:18.105Z,988.02
2018-09-13T11:36:18.201Z,988.01
2018-09-13T11:37:18.335Z,988.05
2018-09-13T11:38:18.577Z,988.05
2018-09-13T11:39:18.675Z,988.06
2018-09-13T11:40:18.992Z,988.02
2018-09-13T11:41:19.120Z,988.02
2018-09-13T11:42:19.264Z,987.99
2018-09-13T11:43:19.413Z,988.01
2018-09-13T11:44:19.604Z,988.04
2018-09-13T11:45:19.772Z,988.03
2018-09-13T11:46:19.982Z,988.03
2018-09-13T11:47:20.166Z,988.03
2018-09-13T11:48:20.325Z,988.03
2018-09-13T11:49:20.500Z,988.02
2018-09-13T11:50:20.684Z,988.04
2018-09-13T11:51:20.909Z,988.08
2018-09-13T11:52:21.098Z,988.04
2018-09-13T11:53:21.283Z,988.02
2018-09-13T11:54:21.452Z,988.04
2018-09-13T11:55:21.597Z,988.01
2018-09-13T11:56:21.801Z,988.03
2018-09-13T11:57:21.964Z,988.03
2018-09-13T11:58:22.162Z,988.03
2018-09-13T11:59:22.403Z,988.00
2018-09-13T12:00:22.496Z,988.00
2018-09-13T12:01:22.686Z,987.99
2018-09-13T12:02:22.917Z,987.99
2018-09-13T12:03:23.171Z,987.95
2018-09-13T12:04:23.345Z,987.92
2018-09-13T12:05:23.436Z,987.94
2018-09-13T12:06:23.619Z,987.91
2018-09-13T12:07:23.850Z,987.93
2018-09-13T12:08:24.024Z,987.92
2018-09-13T12:09:24.392Z,987.93
2018-09-13T12:10:24.331Z,987.91
2018-09-13T12:11:24.517Z,987.94
2018-09-13T12:12:24.707Z,987.97
2018-09-13T12:13:24.949Z,987.91
2018-09-13T12:14:25.057Z,987.95
2018-09-13T12:15:25.352Z,987.94
2018-09-13T12:16:25.539Z,987.89
2018-09-13T12:17:25.744Z,987.92
2018-09-13T12:18:25.996Z,987.92
2018-09-13T12:19:26.062Z,987.92
2018-09-13T12:20:26.246Z,987.94
2018-09-13T12:21:26.436Z,987.95
2018-09-13T12:22:26.709Z,987.95
2018-09-13T12:23:26.890Z,987.91
2018-09-13T12:24:27.062Z,987.90
2018-09-13T12:25:27.244Z,987.84
2018-09-13T12:26:27.437Z,987.84
2018-09-13T12:27:27.702Z,987.84
2018-09-13T12:28:27.825Z,987.87
2018-09-13T12:29:28.001Z,987.83
2018-09-13T12:30:28.150Z,987.79
2018-09-13T12:31:28.386Z,987.76
2018-09-13T12:32:28.562Z,987.76
2018-09-13T12:33:28.703Z,987.75
2018-09-13T12:34:28.912Z,987.77
2018-09-13T12:35:29.092Z,987.79
2018-09-13T12:38:12.044Z,987.80